sensor_id;sensor_type;location;lat;lon;timestamp;P1;durP1;ratioP1;P2;durP2;ratioP2
6955;SDS011;50345;51.136;16.886;2023-02-13T00:00:28;14.75;;;12.05;;
6955;SDS011;50345;51.136;16.886;2023-02-13T00:02:54;21.10;;;11.20;;
6955;SDS011;50345;51.136;16.886;2023-02-13T00:05:19;17.87;;;12.10;;
6955;SDS011;50345;51.136;16.886;2023-02-13T00:07:45;13.37;;;11.50;;
6955;SDS011;50345;51.136;16.886;2023-02-13T00:10:10;22.77;;;12.20;;
6955;SDS011;50345;51.136;16.886;2023-02-13T00:12:36;28.07;;;13.53;;
6955;SDS011;50345;51.136;16.886;2023-02-13T00:15:02;18.20;;;13.20;;
6955;SDS011;50345;51.136;16.886;2023-02-13T00:17:28;19.20;;;11.77;;
6955;SDS011;50345;51.136;16.886;2023-02-13T00:19:54;14.67;;;11.50;;
6955;SDS011;50345;51.136;16.886;2023-02-13T00:22:20;17.20;;;10.80;;
6955;SDS011;50345;51.136;16.886;2023-02-13T00:24:45;17.03;;;12.13;;
6955;SDS011;50345;51.136;16.886;2023-02-13T00:27:11;20.60;;;10.43;;
6955;SDS011;50345;51.136;16.886;2023-02-13T00:29:36;15.27;;;10.40;;
6955;SDS011;50345;51.136;16.886;2023-02-13T00:32:02;14.60;;;9.70;;
6955;SDS011;50345;51.136;16.886;2023-02-13T00:34:28;14.37;;;9.83;;
6955;SDS011;50345;51.136;16.886;2023-02-13T00:36:53;14.90;;;10.27;;
6955;SDS011;50345;51.136;16.886;2023-02-13T00:39:19;17.03;;;11.57;;
6955;SDS011;50345;51.136;16.886;2023-02-13T00:41:44;15.47;;;10.57;;
6955;SDS011;50345;51.136;16.886;2023-02-13T00:44:10;14.10;;;10.10;;
6955;SDS011;50345;51.136;16.886;2023-02-13T00:46:35;14.90;;;9.97;;
6955;SDS011;50345;51.136;16.886;2023-02-13T00:49:02;16.63;;;10.57;;
6955;SDS011;50345;51.136;16.886;2023-02-13T00:51:28;13.17;;;9.93;;
6955;SDS011;50345;51.136;16.886;2023-02-13T00:53:54;15.43;;;9.77;;
6955;SDS011;50345;51.136;16.886;2023-02-13T00:56:19;15.53;;;9.10;;
6955;SDS011;50345;51.136;16.886;2023-02-13T00:58:45;11.83;;;9.70;;
6955;SDS011;50345;51.136;16.886;2023-02-13T01:01:11;12.97;;;9.07;;
6955;SDS011;50345;51.136;16.886;2023-02-13T01:03:36;14.87;;;9.90;;
6955;SDS011;50345;51.136;16.886;2023-02-13T01:06:02;15.70;;;10.30;;
6955;SDS011;50345;51.136;16.886;2023-02-13T01:08:27;15.70;;;11.37;;
6955;SDS011;50345;51.136;16.886;2023-02-13T01:10:53;14.70;;;11.47;;
6955;SDS011;50345;51.136;16.886;2023-02-13T01:13:20;14.38;;;10.45;;
6955;SDS011;50345;51.136;16.886;2023-02-13T01:15:46;16.93;;;10.73;;
6955;SDS011;50345;51.136;16.886;2023-02-13T01:18:13;15.93;;;12.50;;
6955;SDS011;50345;51.136;16.886;2023-02-13T01:20:42;12.32;;;9.75;;
6955;SDS011;50345;51.136;16.886;2023-02-13T01:23:09;13.65;;;10.25;;
6955;SDS011;50345;51.136;16.886;2023-02-13T01:25:39;14.68;;;9.18;;
6955;SDS011;50345;51.136;16.886;2023-02-13T01:28:05;11.48;;;9.88;;
6955;SDS011;50345;51.136;16.886;2023-02-13T01:30:31;13.17;;;10.10;;
6955;SDS011;50345;51.136;16.886;2023-02-13T01:32:56;13.60;;;11.63;;
6955;SDS011;50345;51.136;16.886;2023-02-13T01:35:22;12.57;;;10.30;;
6955;SDS011;50345;51.136;16.886;2023-02-13T01:37:47;14.60;;;11.33;;
6955;SDS011;50345;51.136;16.886;2023-02-13T01:40:13;15.90;;;12.03;;
6955;SDS011;50345;51.136;16.886;2023-02-13T01:42:39;13.87;;;10.27;;
6955;SDS011;50345;51.136;16.886;2023-02-13T01:47:59;11.52;;;9.32;;
6955;SDS011;50345;51.136;16.886;2023-02-13T01:50:35;13.40;;;9.90;;
6955;SDS011;50345;51.136;16.886;2023-02-13T01:55:36;14.95;;;10.32;;
6955;SDS011;50345;51.136;16.886;2023-02-13T01:58:10;14.75;;;9.95;;
6955;SDS011;50345;51.136;16.886;2023-02-13T02:00:38;14.82;;;9.65;;
6955;SDS011;50345;51.136;16.886;2023-02-13T02:03:07;12.60;;;10.60;;
6955;SDS011;50345;51.136;16.886;2023-02-13T02:05:37;16.05;;;10.45;;
6955;SDS011;50345;51.136;16.886;2023-02-13T02:08:04;16.53;;;10.03;;
6955;SDS011;50345;51.136;16.886;2023-02-13T02:10:34;14.45;;;10.65;;
6955;SDS011;50345;51.136;16.886;2023-02-13T02:13:05;18.10;;;11.95;;
6955;SDS011;50345;51.136;16.886;2023-02-13T02:15:34;14.00;;;10.20;;
6955;SDS011;50345;51.136;16.886;2023-02-13T02:17:59;17.33;;;10.77;;
6955;SDS011;50345;51.136;16.886;2023-02-13T02:23:19;10.23;;;9.23;;
6955;SDS011;50345;51.136;16.886;2023-02-13T02:31:55;13.35;;;9.32;;
6955;SDS011;50345;51.136;16.886;2023-02-13T02:45:23;15.52;;;9.75;;
6955;SDS011;50345;51.136;16.886;2023-02-13T02:48:20;18.17;;;11.32;;
6955;SDS011;50345;51.136;16.886;2023-02-13T02:51:18;19.45;;;14.25;;
6955;SDS011;50345;51.136;16.886;2023-02-13T02:56:57;20.55;;;13.25;;
6955;SDS011;50345;51.136;16.886;2023-02-13T02:59:31;18.38;;;13.50;;
6955;SDS011;50345;51.136;16.886;2023-02-13T03:02:16;14.93;;;13.10;;
6955;SDS011;50345;51.136;16.886;2023-02-13T03:05:18;18.90;;;15.07;;
6955;SDS011;50345;51.136;16.886;2023-02-13T03:08:03;19.90;;;15.38;;
6955;SDS011;50345;51.136;16.886;2023-02-13T03:10:30;22.95;;;17.23;;
6955;SDS011;50345;51.136;16.886;2023-02-13T03:13:27;19.27;;;15.82;;
6955;SDS011;50345;51.136;16.886;2023-02-13T03:16:05;21.17;;;16.30;;
6955;SDS011;50345;51.136;16.886;2023-02-13T03:18:55;18.08;;;15.25;;
6955;SDS011;50345;51.136;16.886;2023-02-13T03:24:57;20.20;;;15.35;;
6955;SDS011;50345;51.136;16.886;2023-02-13T03:27:30;19.38;;;14.55;;
6955;SDS011;50345;51.136;16.886;2023-02-13T03:44:58;18.42;;;13.30;;
6955;SDS011;50345;51.136;16.886;2023-02-13T03:47:55;15.68;;;13.00;;
6955;SDS011;50345;51.136;16.886;2023-02-13T03:50:23;16.17;;;12.52;;
6955;SDS011;50345;51.136;16.886;2023-02-13T03:52:52;20.83;;;15.30;;
6955;SDS011;50345;51.136;16.886;2023-02-13T03:55:23;16.35;;;13.48;;
6955;SDS011;50345;51.136;16.886;2023-02-13T03:58:15;16.08;;;11.70;;
6955;SDS011;50345;51.136;16.886;2023-02-13T04:01:02;14.70;;;12.50;;
6955;SDS011;50345;51.136;16.886;2023-02-13T04:03:33;17.30;;;12.50;;
6955;SDS011;50345;51.136;16.886;2023-02-13T04:06:19;21.15;;;16.17;;
6955;SDS011;50345;51.136;16.886;2023-02-13T04:08:50;23.55;;;16.88;;
6955;SDS011;50345;51.136;16.886;2023-02-13T04:13:57;16.80;;;13.75;;
6955;SDS011;50345;51.136;16.886;2023-02-13T04:16:38;20.50;;;14.43;;
6955;SDS011;50345;51.136;16.886;2023-02-13T04:19:06;17.10;;;14.10;;
6955;SDS011;50345;51.136;16.886;2023-02-13T04:21:34;18.60;;;14.05;;
6955;SDS011;50345;51.136;16.886;2023-02-13T04:24:01;25.00;;;14.27;;
6955;SDS011;50345;51.136;16.886;2023-02-13T04:26:32;17.92;;;13.45;;
6955;SDS011;50345;51.136;16.886;2023-02-13T04:29:00;20.58;;;15.25;;
6955;SDS011;50345;51.136;16.886;2023-02-13T04:31:25;21.57;;;15.27;;
6955;SDS011;50345;51.136;16.886;2023-02-13T04:33:51;24.00;;;17.37;;
6955;SDS011;50345;51.136;16.886;2023-02-13T04:36:17;24.20;;;17.50;;
6955;SDS011;50345;51.136;16.886;2023-02-13T04:38:42;21.77;;;16.73;;
6955;SDS011;50345;51.136;16.886;2023-02-13T04:41:09;25.58;;;17.98;;
6955;SDS011;50345;51.136;16.886;2023-02-13T04:43:35;22.83;;;17.23;;
6955;SDS011;50345;51.136;16.886;2023-02-13T04:46:01;18.55;;;13.90;;
6955;SDS011;50345;51.136;16.886;2023-02-13T04:48:27;22.80;;;17.05;;
6955;SDS011;50345;51.136;16.886;2023-02-13T04:50:53;18.40;;;13.47;;
6955;SDS011;50345;51.136;16.886;2023-02-13T04:53:18;22.90;;;12.53;;
6955;SDS011;50345;51.136;16.886;2023-02-13T04:55:44;19.57;;;13.60;;
6955;SDS011;50345;51.136;16.886;2023-02-13T04:58:09;21.30;;;17.07;;
6955;SDS011;50345;51.136;16.886;2023-02-13T05:00:35;23.03;;;16.20;;
6955;SDS011;50345;51.136;16.886;2023-02-13T05:03:09;24.52;;;16.75;;
6955;SDS011;50345;51.136;16.886;2023-02-13T05:05:36;16.08;;;13.93;;
6955;SDS011;50345;51.136;16.886;2023-02-13T05:08:03;22.27;;;14.77;;
6955;SDS011;50345;51.136;16.886;2023-02-13T05:10:30;19.13;;;15.07;;
6955;SDS011;50345;51.136;16.886;2023-02-13T05:12:55;19.63;;;15.63;;
6955;SDS011;50345;51.136;16.886;2023-02-13T05:15:21;19.90;;;15.07;;
6955;SDS011;50345;51.136;16.886;2023-02-13T05:17:47;20.67;;;14.18;;
6955;SDS011;50345;51.136;16.886;2023-02-13T05:20:13;22.25;;;14.70;;
6955;SDS011;50345;51.136;16.886;2023-02-13T05:22:43;17.48;;;13.68;;
6955;SDS011;50345;51.136;16.886;2023-02-13T05:25:32;17.48;;;13.27;;
6955;SDS011;50345;51.136;16.886;2023-02-13T05:27:58;16.83;;;12.13;;
6955;SDS011;50345;51.136;16.886;2023-02-13T05:30:24;16.80;;;11.40;;
6955;SDS011;50345;51.136;16.886;2023-02-13T05:32:49;16.63;;;12.47;;
6955;SDS011;50345;51.136;16.886;2023-02-13T05:35:16;18.10;;;11.40;;
6955;SDS011;50345;51.136;16.886;2023-02-13T05:37:42;20.27;;;11.32;;
6955;SDS011;50345;51.136;16.886;2023-02-13T05:40:08;15.17;;;11.50;;
6955;SDS011;50345;51.136;16.886;2023-02-13T05:42:35;23.77;;;17.25;;
6955;SDS011;50345;51.136;16.886;2023-02-13T05:45:01;17.93;;;16.07;;
6955;SDS011;50345;51.136;16.886;2023-02-13T05:47:27;22.50;;;15.90;;
6955;SDS011;50345;51.136;16.886;2023-02-13T05:49:52;23.03;;;15.80;;
6955;SDS011;50345;51.136;16.886;2023-02-13T05:52:18;28.97;;;14.67;;
6955;SDS011;50345;51.136;16.886;2023-02-13T05:54:44;21.00;;;16.00;;
6955;SDS011;50345;51.136;16.886;2023-02-13T05:57:09;22.70;;;16.90;;
6955;SDS011;50345;51.136;16.886;2023-02-13T05:59:35;19.43;;;13.00;;
6955;SDS011;50345;51.136;16.886;2023-02-13T06:02:00;20.97;;;12.70;;
6955;SDS011;50345;51.136;16.886;2023-02-13T06:04:26;17.70;;;13.07;;
6955;SDS011;50345;51.136;16.886;2023-02-13T06:06:52;15.83;;;13.10;;
6955;SDS011;50345;51.136;16.886;2023-02-13T06:09:17;14.47;;;11.43;;
6955;SDS011;50345;51.136;16.886;2023-02-13T06:11:43;12.53;;;9.77;;
6955;SDS011;50345;51.136;16.886;2023-02-13T06:14:09;11.47;;;10.03;;
6955;SDS011;50345;51.136;16.886;2023-02-13T06:16:35;13.77;;;11.05;;
6955;SDS011;50345;51.136;16.886;2023-02-13T06:19:00;9.70;;;8.70;;
6955;SDS011;50345;51.136;16.886;2023-02-13T06:21:26;12.20;;;10.07;;
6955;SDS011;50345;51.136;16.886;2023-02-13T06:23:52;11.87;;;8.93;;
6955;SDS011;50345;51.136;16.886;2023-02-13T06:26:18;13.17;;;9.07;;
6955;SDS011;50345;51.136;16.886;2023-02-13T06:28:43;12.90;;;8.83;;
6955;SDS011;50345;51.136;16.886;2023-02-13T06:31:09;11.50;;;8.17;;
6955;SDS011;50345;51.136;16.886;2023-02-13T06:33:34;11.13;;;8.93;;
6955;SDS011;50345;51.136;16.886;2023-02-13T06:36:00;11.17;;;9.57;;
6955;SDS011;50345;51.136;16.886;2023-02-13T06:38:25;11.27;;;8.40;;
6955;SDS011;50345;51.136;16.886;2023-02-13T06:40:51;12.47;;;9.60;;
6955;SDS011;50345;51.136;16.886;2023-02-13T06:43:17;17.33;;;12.17;;
6955;SDS011;50345;51.136;16.886;2023-02-13T06:45:43;17.50;;;13.32;;
6955;SDS011;50345;51.136;16.886;2023-02-13T06:48:10;22.77;;;15.80;;
6955;SDS011;50345;51.136;16.886;2023-02-13T06:50:36;23.37;;;18.60;;
6955;SDS011;50345;51.136;16.886;2023-02-13T06:53:02;27.07;;;19.70;;
6955;SDS011;50345;51.136;16.886;2023-02-13T06:55:27;28.27;;;21.70;;
6955;SDS011;50345;51.136;16.886;2023-02-13T06:57:53;24.33;;;19.27;;
6955;SDS011;50345;51.136;16.886;2023-02-13T07:00:19;27.30;;;19.70;;
6955;SDS011;50345;51.136;16.886;2023-02-13T07:02:46;29.13;;;21.17;;
6955;SDS011;50345;51.136;16.886;2023-02-13T07:05:12;23.65;;;15.32;;
6955;SDS011;50345;51.136;16.886;2023-02-13T07:07:38;19.65;;;15.60;;
6955;SDS011;50345;51.136;16.886;2023-02-13T07:10:06;21.60;;;15.23;;
6955;SDS011;50345;51.136;16.886;2023-02-13T07:12:33;32.45;;;19.23;;
6955;SDS011;50345;51.136;16.886;2023-02-13T07:15:00;30.73;;;19.70;;
6955;SDS011;50345;51.136;16.886;2023-02-13T07:17:26;27.70;;;20.75;;
6955;SDS011;50345;51.136;16.886;2023-02-13T07:19:52;27.60;;;19.67;;
6955;SDS011;50345;51.136;16.886;2023-02-13T07:22:18;25.17;;;20.30;;
6955;SDS011;50345;51.136;16.886;2023-02-13T07:24:43;21.70;;;19.07;;
6955;SDS011;50345;51.136;16.886;2023-02-13T07:27:09;23.10;;;16.80;;
6955;SDS011;50345;51.136;16.886;2023-02-13T07:29:35;21.50;;;16.30;;
6955;SDS011;50345;51.136;16.886;2023-02-13T07:32:00;26.73;;;18.47;;
6955;SDS011;50345;51.136;16.886;2023-02-13T07:34:26;22.70;;;16.43;;
6955;SDS011;50345;51.136;16.886;2023-02-13T07:36:51;18.97;;;13.90;;
6955;SDS011;50345;51.136;16.886;2023-02-13T07:39:17;18.00;;;12.63;;
6955;SDS011;50345;51.136;16.886;2023-02-13T07:41:43;15.25;;;11.20;;
6955;SDS011;50345;51.136;16.886;2023-02-13T07:44:08;17.60;;;14.10;;
6955;SDS011;50345;51.136;16.886;2023-02-13T07:46:34;14.57;;;12.20;;
6955;SDS011;50345;51.136;16.886;2023-02-13T07:49:00;18.93;;;13.23;;
6955;SDS011;50345;51.136;16.886;2023-02-13T07:51:26;16.20;;;14.27;;
6955;SDS011;50345;51.136;16.886;2023-02-13T07:53:53;23.67;;;14.65;;
6955;SDS011;50345;51.136;16.886;2023-02-13T07:56:19;21.70;;;14.05;;
6955;SDS011;50345;51.136;16.886;2023-02-13T07:58:45;22.97;;;15.40;;
6955;SDS011;50345;51.136;16.886;2023-02-13T08:01:12;27.27;;;16.40;;
6955;SDS011;50345;51.136;16.886;2023-02-13T08:03:39;25.10;;;15.05;;
6955;SDS011;50345;51.136;16.886;2023-02-13T08:06:05;21.00;;;13.93;;
6955;SDS011;50345;51.136;16.886;2023-02-13T08:08:31;20.27;;;13.90;;
6955;SDS011;50345;51.136;16.886;2023-02-13T08:11:01;25.17;;;15.50;;
6955;SDS011;50345;51.136;16.886;2023-02-13T08:13:48;25.75;;;15.68;;
6955;SDS011;50345;51.136;16.886;2023-02-13T08:16:14;25.50;;;16.33;;
6955;SDS011;50345;51.136;16.886;2023-02-13T08:18:39;26.03;;;16.63;;
6955;SDS011;50345;51.136;16.886;2023-02-13T08:21:05;29.03;;;17.50;;
6955;SDS011;50345;51.136;16.886;2023-02-13T08:23:31;21.73;;;16.50;;
6955;SDS011;50345;51.136;16.886;2023-02-13T08:26:00;30.27;;;17.40;;
6955;SDS011;50345;51.136;16.886;2023-02-13T08:28:26;22.90;;;15.85;;
6955;SDS011;50345;51.136;16.886;2023-02-13T08:30:53;33.85;;;17.13;;
6955;SDS011;50345;51.136;16.886;2023-02-13T08:33:18;29.03;;;18.70;;
6955;SDS011;50345;51.136;16.886;2023-02-13T08:35:44;36.97;;;19.20;;
6955;SDS011;50345;51.136;16.886;2023-02-13T08:38:10;30.17;;;18.83;;
6955;SDS011;50345;51.136;16.886;2023-02-13T08:40:35;35.30;;;18.67;;
6955;SDS011;50345;51.136;16.886;2023-02-13T08:43:02;31.10;;;17.80;;
6955;SDS011;50345;51.136;16.886;2023-02-13T08:45:29;29.27;;;18.42;;
6955;SDS011;50345;51.136;16.886;2023-02-13T08:47:58;30.90;;;19.98;;
6955;SDS011;50345;51.136;16.886;2023-02-13T08:50:24;33.20;;;20.58;;
6955;SDS011;50345;51.136;16.886;2023-02-13T08:52:50;32.83;;;19.73;;
6955;SDS011;50345;51.136;16.886;2023-02-13T08:55:16;27.03;;;18.80;;
6955;SDS011;50345;51.136;16.886;2023-02-13T08:57:42;27.67;;;18.10;;
6955;SDS011;50345;51.136;16.886;2023-02-13T09:00:07;27.47;;;16.77;;
6955;SDS011;50345;51.136;16.886;2023-02-13T09:02:33;24.27;;;15.40;;
6955;SDS011;50345;51.136;16.886;2023-02-13T09:04:59;25.83;;;15.27;;
6955;SDS011;50345;51.136;16.886;2023-02-13T09:07:24;21.07;;;14.10;;
6955;SDS011;50345;51.136;16.886;2023-02-13T09:09:50;18.40;;;13.00;;
6955;SDS011;50345;51.136;16.886;2023-02-13T09:12:15;16.37;;;10.47;;
6955;SDS011;50345;51.136;16.886;2023-02-13T09:14:41;14.80;;;9.20;;
6955;SDS011;50345;51.136;16.886;2023-02-13T09:17:07;10.77;;;7.80;;
6955;SDS011;50345;51.136;16.886;2023-02-13T09:19:32;11.10;;;8.03;;
6955;SDS011;50345;51.136;16.886;2023-02-13T09:21:58;11.43;;;7.30;;
6955;SDS011;50345;51.136;16.886;2023-02-13T09:24:23;9.80;;;7.93;;
6955;SDS011;50345;51.136;16.886;2023-02-13T09:26:49;8.18;;;6.80;;
6955;SDS011;50345;51.136;16.886;2023-02-13T09:29:15;8.33;;;7.63;;
6955;SDS011;50345;51.136;16.886;2023-02-13T09:31:41;6.47;;;4.87;;
6955;SDS011;50345;51.136;16.886;2023-02-13T09:34:06;14.93;;;9.43;;
6955;SDS011;50345;51.136;16.886;2023-02-13T09:36:32;12.23;;;7.87;;
6955;SDS011;50345;51.136;16.886;2023-02-13T09:38:57;14.10;;;8.97;;
6955;SDS011;50345;51.136;16.886;2023-02-13T09:43:57;7.88;;;4.72;;
6955;SDS011;50345;51.136;16.886;2023-02-13T09:46:27;6.78;;;4.32;;
6955;SDS011;50345;51.136;16.886;2023-02-13T09:48:57;8.52;;;5.47;;
6955;SDS011;50345;51.136;16.886;2023-02-13T09:51:25;10.15;;;7.55;;
6955;SDS011;50345;51.136;16.886;2023-02-13T09:53:56;7.15;;;6.20;;
6955;SDS011;50345;51.136;16.886;2023-02-13T09:56:34;4.80;;;3.58;;
6955;SDS011;50345;51.136;16.886;2023-02-13T09:59:23;3.70;;;3.40;;
6955;SDS011;50345;51.136;16.886;2023-02-13T10:07:54;3.28;;;3.08;;
6955;SDS011;50345;51.136;16.886;2023-02-13T10:10:43;3.60;;;3.30;;
6955;SDS011;50345;51.136;16.886;2023-02-13T10:16:15;3.40;;;3.10;;
6955;SDS011;50345;51.136;16.886;2023-02-13T10:21:39;2.95;;;2.63;;
6955;SDS011;50345;51.136;16.886;2023-02-13T10:24:37;4.25;;;3.10;;
6955;SDS011;50345;51.136;16.886;2023-02-13T10:27:23;5.30;;;3.38;;
6955;SDS011;50345;51.136;16.886;2023-02-13T10:29:54;3.45;;;3.15;;
6955;SDS011;50345;51.136;16.886;2023-02-13T10:32:36;5.80;;;3.15;;
6955;SDS011;50345;51.136;16.886;2023-02-13T10:37:55;4.30;;;2.83;;
6955;SDS011;50345;51.136;16.886;2023-02-13T10:40:27;4.07;;;2.80;;
6955;SDS011;50345;51.136;16.886;2023-02-13T10:43:09;3.58;;;3.28;;
6955;SDS011;50345;51.136;16.886;2023-02-13T10:48:28;4.93;;;3.25;;
6955;SDS011;50345;51.136;16.886;2023-02-13T10:54:13;3.75;;;2.38;;
6955;SDS011;50345;51.136;16.886;2023-02-13T11:04:42;3.95;;;3.25;;
6955;SDS011;50345;51.136;16.886;2023-02-13T11:07:10;4.90;;;2.97;;
6955;SDS011;50345;51.136;16.886;2023-02-13T11:09:40;3.75;;;3.45;;
6955;SDS011;50345;51.136;16.886;2023-02-13T11:12:25;4.13;;;3.63;;
6955;SDS011;50345;51.136;16.886;2023-02-13T11:14:54;3.13;;;2.83;;
6955;SDS011;50345;51.136;16.886;2023-02-13T11:17:22;3.63;;;3.33;;
6955;SDS011;50345;51.136;16.886;2023-02-13T11:19:50;4.20;;;3.80;;
6955;SDS011;50345;51.136;16.886;2023-02-13T11:22:31;5.07;;;4.25;;
6955;SDS011;50345;51.136;16.886;2023-02-13T11:25:01;5.50;;;3.92;;
6955;SDS011;50345;51.136;16.886;2023-02-13T11:27:29;4.22;;;3.83;;
6955;SDS011;50345;51.136;16.886;2023-02-13T11:29:58;4.90;;;3.60;;
6955;SDS011;50345;51.136;16.886;2023-02-13T11:32:30;7.35;;;4.07;;
6955;SDS011;50345;51.136;16.886;2023-02-13T11:34:59;4.60;;;3.70;;
6955;SDS011;50345;51.136;16.886;2023-02-13T11:37:53;3.78;;;3.40;;
6955;SDS011;50345;51.136;16.886;2023-02-13T11:40:37;4.05;;;3.25;;
6955;SDS011;50345;51.136;16.886;2023-02-13T11:43:06;5.20;;;3.20;;
6955;SDS011;50345;51.136;16.886;2023-02-13T11:45:38;4.63;;;4.18;;
6955;SDS011;50345;51.136;16.886;2023-02-13T11:48:07;2.90;;;2.70;;
6955;SDS011;50345;51.136;16.886;2023-02-13T11:50:41;3.78;;;3.00;;
6955;SDS011;50345;51.136;16.886;2023-02-13T11:53:20;4.55;;;3.00;;
6955;SDS011;50345;51.136;16.886;2023-02-13T11:56:06;3.72;;;3.45;;
6955;SDS011;50345;51.136;16.886;2023-02-13T11:58:32;4.22;;;3.70;;
6955;SDS011;50345;51.136;16.886;2023-02-13T12:01:09;3.80;;;3.50;;
6955;SDS011;50345;51.136;16.886;2023-02-13T12:03:41;3.45;;;3.15;;
6955;SDS011;50345;51.136;16.886;2023-02-13T12:08:40;4.15;;;3.78;;
6955;SDS011;50345;51.136;16.886;2023-02-13T12:14:31;11.75;;;6.30;;
6955;SDS011;50345;51.136;16.886;2023-02-13T12:19:40;5.78;;;5.28;;
6955;SDS011;50345;51.136;16.886;2023-02-13T12:22:16;4.65;;;4.10;;
6955;SDS011;50345;51.136;16.886;2023-02-13T12:30:22;4.70;;;4.22;;
6955;SDS011;50345;51.136;16.886;2023-02-13T12:35:38;4.70;;;4.40;;
6955;SDS011;50345;51.136;16.886;2023-02-13T12:38:33;4.90;;;4.40;;
6955;SDS011;50345;51.136;16.886;2023-02-13T12:44:12;4.53;;;4.13;;
6955;SDS011;50345;51.136;16.886;2023-02-13T13:00:21;4.80;;;4.30;;
6955;SDS011;50345;51.136;16.886;2023-02-13T13:14:25;3.10;;;2.80;;
6955;SDS011;50345;51.136;16.886;2023-02-13T13:16:44;2.70;;;2.50;;
6955;SDS011;50345;51.136;16.886;2023-02-13T13:19:28;2.70;;;2.50;;
6955;SDS011;50345;51.136;16.886;2023-02-13T13:21:59;2.65;;;2.45;;
6955;SDS011;50345;51.136;16.886;2023-02-13T13:27:04;3.15;;;1.83;;
6955;SDS011;50345;51.136;16.886;2023-02-13T13:29:42;2.80;;;2.60;;
6955;SDS011;50345;51.136;16.886;2023-02-13T13:32:13;3.40;;;3.00;;
6955;SDS011;50345;51.136;16.886;2023-02-13T13:34:42;2.22;;;2.10;;
6955;SDS011;50345;51.136;16.886;2023-02-13T13:37:19;7.50;;;3.50;;
6955;SDS011;50345;51.136;16.886;2023-02-13T13:40:22;5.10;;;2.63;;
6955;SDS011;50345;51.136;16.886;2023-02-13T13:43:02;2.65;;;2.45;;
6955;SDS011;50345;51.136;16.886;2023-02-13T13:49:09;2.47;;;2.28;;
6955;SDS011;50345;51.136;16.886;2023-02-13T13:51:38;2.95;;;2.65;;
6955;SDS011;50345;51.136;16.886;2023-02-13T13:57:15;3.30;;;3.00;;
6955;SDS011;50345;51.136;16.886;2023-02-13T14:05:25;4.72;;;4.25;;
6955;SDS011;50345;51.136;16.886;2023-02-13T14:07:53;3.92;;;3.42;;
6955;SDS011;50345;51.136;16.886;2023-02-13T14:13:27;3.38;;;2.70;;
6955;SDS011;50345;51.136;16.886;2023-02-13T14:15:54;3.45;;;3.15;;
6955;SDS011;50345;51.136;16.886;2023-02-13T14:18:21;3.53;;;3.23;;
6955;SDS011;50345;51.136;16.886;2023-02-13T14:20:50;4.45;;;4.13;;
6955;SDS011;50345;51.136;16.886;2023-02-13T14:23:36;5.30;;;4.18;;
6955;SDS011;50345;51.136;16.886;2023-02-13T14:29:29;5.57;;;4.37;;
6955;SDS011;50345;51.136;16.886;2023-02-13T14:31:29;7.15;;;5.63;;
6955;SDS011;50345;51.136;16.886;2023-02-13T14:34:00;5.68;;;5.05;;
6955;SDS011;50345;51.136;16.886;2023-02-13T14:36:30;5.85;;;5.25;;
6955;SDS011;50345;51.136;16.886;2023-02-13T14:38:59;5.68;;;5.18;;
6955;SDS011;50345;51.136;16.886;2023-02-13T14:41:41;7.95;;;4.38;;
6955;SDS011;50345;51.136;16.886;2023-02-13T14:47:02;5.55;;;3.90;;
6955;SDS011;50345;51.136;16.886;2023-02-13T14:49:31;5.32;;;3.45;;
6955;SDS011;50345;51.136;16.886;2023-02-13T14:52:04;5.32;;;3.97;;
6955;SDS011;50345;51.136;16.886;2023-02-13T14:54:33;5.13;;;4.25;;
6955;SDS011;50345;51.136;16.886;2023-02-13T14:57:36;4.90;;;4.40;;
6955;SDS011;50345;51.136;16.886;2023-02-13T15:00:00;4.75;;;4.30;;
6955;SDS011;50345;51.136;16.886;2023-02-13T15:02:41;4.40;;;3.65;;
6955;SDS011;50345;51.136;16.886;2023-02-13T15:05:13;4.65;;;3.88;;
6955;SDS011;50345;51.136;16.886;2023-02-13T15:07:51;4.65;;;3.83;;
6955;SDS011;50345;51.136;16.886;2023-02-13T15:10:43;6.97;;;4.70;;
6955;SDS011;50345;51.136;16.886;2023-02-13T15:13:14;6.13;;;4.63;;
6955;SDS011;50345;51.136;16.886;2023-02-13T15:15:42;5.00;;;4.10;;
6955;SDS011;50345;51.136;16.886;2023-02-13T15:18:10;6.38;;;4.35;;
6955;SDS011;50345;51.136;16.886;2023-02-13T15:20:45;6.55;;;5.22;;
6955;SDS011;50345;51.136;16.886;2023-02-13T15:23:18;4.75;;;4.15;;
6955;SDS011;50345;51.136;16.886;2023-02-13T15:25:47;5.53;;;4.50;;
6955;SDS011;50345;51.136;16.886;2023-02-13T15:28:20;6.57;;;5.22;;
6955;SDS011;50345;51.136;16.886;2023-02-13T15:31:04;6.25;;;5.15;;
6955;SDS011;50345;51.136;16.886;2023-02-13T15:33:43;5.90;;;4.55;;
6955;SDS011;50345;51.136;16.886;2023-02-13T15:36:12;6.35;;;5.22;;
6955;SDS011;50345;51.136;16.886;2023-02-13T15:38:44;5.88;;;5.32;;
6955;SDS011;50345;51.136;16.886;2023-02-13T15:41:17;5.97;;;5.40;;
6955;SDS011;50345;51.136;16.886;2023-02-13T15:43:48;6.82;;;4.90;;
6955;SDS011;50345;51.136;16.886;2023-02-13T15:49:06;6.03;;;4.07;;
6955;SDS011;50345;51.136;16.886;2023-02-13T15:51:34;4.32;;;3.08;;
6955;SDS011;50345;51.136;16.886;2023-02-13T15:54:00;4.80;;;3.30;;
6955;SDS011;50345;51.136;16.886;2023-02-13T15:56:29;7.45;;;4.65;;
6955;SDS011;50345;51.136;16.886;2023-02-13T15:58:55;4.80;;;4.35;;
6955;SDS011;50345;51.136;16.886;2023-02-13T16:01:22;8.90;;;6.97;;
6955;SDS011;50345;51.136;16.886;2023-02-13T16:03:49;14.10;;;9.33;;
6955;SDS011;50345;51.136;16.886;2023-02-13T16:06:21;14.25;;;10.90;;
6955;SDS011;50345;51.136;16.886;2023-02-13T16:08:51;13.45;;;9.35;;
6955;SDS011;50345;51.136;16.886;2023-02-13T16:11:19;11.75;;;9.70;;
6955;SDS011;50345;51.136;16.886;2023-02-13T16:14:33;13.25;;;11.18;;
6955;SDS011;50345;51.136;16.886;2023-02-13T16:16:49;17.25;;;11.90;;
6955;SDS011;50345;51.136;16.886;2023-02-13T16:19:20;13.52;;;12.15;;
6955;SDS011;50345;51.136;16.886;2023-02-13T16:24:51;14.85;;;12.18;;
6955;SDS011;50345;51.136;16.886;2023-02-13T16:27:25;16.27;;;12.63;;
6955;SDS011;50345;51.136;16.886;2023-02-13T16:29:56;14.35;;;12.85;;
6955;SDS011;50345;51.136;16.886;2023-02-13T16:32:31;16.17;;;11.55;;
6955;SDS011;50345;51.136;16.886;2023-02-13T16:37:51;16.38;;;13.93;;
6955;SDS011;50345;51.136;16.886;2023-02-13T16:40:37;15.95;;;13.73;;
6955;SDS011;50345;51.136;16.886;2023-02-13T16:48:39;17.77;;;15.25;;
6955;SDS011;50345;51.136;16.886;2023-02-13T16:51:08;17.30;;;14.02;;
6955;SDS011;50345;51.136;16.886;2023-02-13T16:53:34;19.00;;;15.20;;
6955;SDS011;50345;51.136;16.886;2023-02-13T16:56:01;18.65;;;12.90;;
6955;SDS011;50345;51.136;16.886;2023-02-13T16:58:32;18.30;;;14.05;;
6955;SDS011;50345;51.136;16.886;2023-02-13T17:00:58;18.83;;;14.30;;
6955;SDS011;50345;51.136;16.886;2023-02-13T17:03:25;16.40;;;14.23;;
6955;SDS011;50345;51.136;16.886;2023-02-13T17:05:51;21.10;;;15.47;;
6955;SDS011;50345;51.136;16.886;2023-02-13T17:08:17;18.92;;;16.15;;
6955;SDS011;50345;51.136;16.886;2023-02-13T17:10:43;22.77;;;17.20;;
6955;SDS011;50345;51.136;16.886;2023-02-13T17:13:27;25.45;;;19.83;;
6955;SDS011;50345;51.136;16.886;2023-02-13T17:15:52;27.77;;;20.13;;
6955;SDS011;50345;51.136;16.886;2023-02-13T17:18:19;20.75;;;18.20;;
6955;SDS011;50345;51.136;16.886;2023-02-13T17:20:45;22.83;;;17.60;;
6955;SDS011;50345;51.136;16.886;2023-02-13T17:23:13;21.52;;;15.98;;
6955;SDS011;50345;51.136;16.886;2023-02-13T17:25:45;17.08;;;14.73;;
6955;SDS011;50345;51.136;16.886;2023-02-13T17:28:16;20.95;;;14.82;;
6955;SDS011;50345;51.136;16.886;2023-02-13T17:30:47;17.13;;;14.05;;